createdAt,value
2022-12-01T00:00:27.560Z,29.55
2022-12-01T00:00:59.650Z,29.05
2022-12-01T00:01:31.443Z,29.08
2022-12-01T00:02:03.007Z,28.35
2022-12-01T00:02:34.672Z,30.58
2022-12-01T00:03:06.553Z,26.88
2022-12-01T00:03:38.164Z,26.00
2022-12-01T00:04:10.114Z,26.55
2022-12-01T00:04:41.766Z,28.88
2022-12-01T00:05:13.269Z,28.30
2022-12-01T00:05:44.733Z,25.33
2022-12-01T00:06:18.522Z,25.23
2022-12-01T00:06:50.025Z,27.65
2022-12-01T00:07:21.495Z,29.38
2022-12-01T00:07:53.019Z,25.60
2022-12-01T00:08:24.493Z,27.23
2022-12-01T00:09:19.514Z,26.90
2022-12-01T00:10:10.633Z,24.83
2022-12-01T00:10:42.109Z,27.42
2022-12-01T00:11:13.570Z,27.15
2022-12-01T00:11:45.311Z,29.08
2022-12-01T00:12:16.744Z,27.48
2022-12-01T00:12:48.219Z,29.38
2022-12-01T00:13:19.718Z,27.27
2022-12-01T00:13:51.182Z,30.13
2022-12-01T00:14:22.801Z,29.70
2022-12-01T00:15:01.053Z,32.30
2022-12-01T00:15:36.132Z,30.70
2022-12-01T00:16:16.935Z,28.67
2022-12-01T00:16:48.644Z,28.40
2022-12-01T00:17:21.340Z,25.92
2022-12-01T00:17:52.890Z,27.60
2022-12-01T00:18:24.452Z,28.90
2022-12-01T00:18:56.214Z,30.55
2022-12-01T00:19:27.956Z,29.63
2022-12-01T00:19:59.394Z,28.20
2022-12-01T00:20:33.209Z,31.98
2022-12-01T00:21:04.981Z,29.42
2022-12-01T00:21:36.507Z,30.42
2022-12-01T00:22:07.956Z,31.42
2022-12-01T00:22:43.146Z,32.47
2022-12-01T00:23:14.574Z,28.98
2022-12-01T00:23:49.936Z,29.67
2022-12-01T00:24:23.415Z,29.65
2022-12-01T00:24:54.848Z,31.98
2022-12-01T00:25:26.717Z,31.65
2022-12-01T00:26:06.976Z,32.55
2022-12-01T00:26:38.887Z,28.33
2022-12-01T00:27:10.370Z,30.58
2022-12-01T00:27:42.555Z,29.33
2022-12-01T00:28:14.005Z,28.60
2022-12-01T00:28:51.839Z,30.10
2022-12-01T00:29:23.526Z,32.30
2022-12-01T00:29:55.010Z,28.88
2022-12-01T00:30:26.509Z,28.70
2022-12-01T00:30:58.081Z,30.02
2022-12-01T00:31:29.593Z,31.35
2022-12-01T00:32:01.246Z,31.45
2022-12-01T00:32:32.957Z,31.02
2022-12-01T00:33:04.403Z,30.65
2022-12-01T00:33:36.084Z,28.08
2022-12-01T00:34:11.488Z,33.65
2022-12-01T00:34:43.144Z,29.73
2022-12-01T00:35:15.649Z,29.73
2022-12-01T00:35:47.342Z,29.23
2022-12-01T00:36:19.633Z,31.45
2022-12-01T00:36:51.660Z,29.95
2022-12-01T00:37:23.140Z,31.20
2022-12-01T00:37:54.624Z,30.73
2022-12-01T00:38:26.563Z,30.02
2022-12-01T00:38:58.049Z,31.42
2022-12-01T00:39:29.653Z,31.15
2022-12-01T00:40:01.666Z,28.48
2022-12-01T00:40:33.152Z,28.40
2022-12-01T00:41:05.167Z,30.30
2022-12-01T00:41:36.661Z,32.63
2022-12-01T00:42:13.130Z,28.80
2022-12-01T00:42:44.977Z,30.90
2022-12-01T00:43:16.456Z,29.23
2022-12-01T00:43:48.227Z,28.80
2022-12-01T00:44:19.836Z,29.85
2022-12-01T00:44:51.351Z,29.95
2022-12-01T00:45:22.792Z,35.63
2022-12-01T00:45:56.344Z,32.92
2022-12-01T00:46:28.010Z,29.63
2022-12-01T00:46:59.605Z,32.35
2022-12-01T00:47:31.102Z,29.02
2022-12-01T00:48:02.569Z,27.98
2022-12-01T00:48:34.013Z,29.65
2022-12-01T00:49:06.143Z,31.58
2022-12-01T00:49:37.610Z,29.38
2022-12-01T00:50:09.502Z,29.98
2022-12-01T00:50:41.256Z,30.35
2022-12-01T00:51:12.731Z,29.33
2022-12-01T00:51:44.268Z,29.77
2022-12-01T00:52:17.312Z,31.52
2022-12-01T00:52:48.808Z,30.52
2022-12-01T00:53:20.829Z,28.52
2022-12-01T00:53:52.267Z,30.67
2022-12-01T00:54:24.050Z,29.70
2022-12-01T00:54:55.481Z,30.75
2022-12-01T00:55:27.006Z,29.75
2022-12-01T00:55:58.585Z,30.13
2022-12-01T00:56:30.101Z,30.00
2022-12-01T00:57:01.587Z,29.73
2022-12-01T00:57:33.042Z,29.17
2022-12-01T00:58:04.519Z,30.00
2022-12-01T00:58:36.114Z,28.90
2022-12-01T00:59:07.586Z,29.58
2022-12-01T00:59:39.046Z,28.67
2022-12-01T01:00:11.710Z,30.63
2022-12-01T01:00:47.499Z,29.65
2022-12-01T01:01:19.602Z,29.42
2022-12-01T01:01:51.364Z,28.98
2022-12-01T01:02:22.985Z,28.48
2022-12-01T01:02:54.744Z,28.65
2022-12-01T01:03:27.324Z,28.10
2022-12-01T01:03:58.817Z,30.40
2022-12-01T01:04:31.338Z,28.95
2022-12-01T01:05:02.781Z,28.63
2022-12-01T01:05:41.425Z,29.45
2022-12-01T01:06:13.018Z,25.95
2022-12-01T01:06:44.640Z,30.13
2022-12-01T01:07:16.201Z,28.27
2022-12-01T01:07:47.754Z,29.23
2022-12-01T01:08:19.422Z,28.98
2022-12-01T01:08:50.943Z,29.15
2022-12-01T01:09:22.532Z,28.48
2022-12-01T01:09:54.057Z,27.10
2022-12-01T01:10:25.529Z,32.35
2022-12-01T01:10:59.887Z,28.85
2022-12-01T01:11:31.377Z,26.30
2022-12-01T01:12:03.089Z,27.40
2022-12-01T01:12:34.560Z,26.77
2022-12-01T01:13:06.410Z,27.73
2022-12-01T01:13:38.464Z,27.92
2022-12-01T01:14:09.964Z,28.35
2022-12-01T01:14:41.442Z,27.35
2022-12-01T01:15:13.001Z,26.98
2022-12-01T01:15:44.584Z,27.73
2022-12-01T01:16:18.998Z,28.30
2022-12-01T01:16:50.591Z,28.05
2022-12-01T01:17:22.157Z,27.33
2022-12-01T01:17:53.736Z,28.95
2022-12-01T01:18:25.957Z,27.73
2022-12-01T01:18:58.303Z,31.50
2022-12-01T01:19:29.752Z,29.13
2022-12-01T01:20:01.309Z,29.00
2022-12-01T01:20:33.524Z,27.77
2022-12-01T01:21:07.873Z,27.83
2022-12-01T01:21:39.613Z,25.58
2022-12-01T01:22:11.324Z,26.75
2022-12-01T01:22:42.770Z,28.55
2022-12-01T01:23:14.222Z,26.35
2022-12-01T01:23:45.680Z,28.42
2022-12-01T01:24:17.505Z,27.67
2022-12-01T01:24:48.973Z,30.50
2022-12-01T01:25:20.524Z,29.48
2022-12-01T01:25:52.128Z,29.70
2022-12-01T01:26:29.304Z,27.45
2022-12-01T01:27:00.959Z,30.83
2022-12-01T01:27:34.486Z,28.77
2022-12-01T01:28:06.040Z,26.83
2022-12-01T01:28:37.574Z,26.55
2022-12-01T01:29:09.031Z,29.38
2022-12-01T01:29:40.513Z,31.20
2022-12-01T01:30:12.412Z,28.42
2022-12-01T01:30:44.571Z,31.05
2022-12-01T01:31:19.293Z,29.20
2022-12-01T01:31:50.813Z,27.55
2022-12-01T01:32:22.287Z,28.90
2022-12-01T01:32:53.851Z,30.58
2022-12-01T01:33:25.436Z,29.20
2022-12-01T01:33:57.568Z,30.20
2022-12-01T01:34:29.113Z,29.70
2022-12-01T01:35:00.745Z,30.00
2022-12-01T01:35:32.316Z,30.27
2022-12-01T01:36:04.695Z,32.60
2022-12-01T01:36:36.171Z,29.65
2022-12-01T01:37:07.628Z,30.23
2022-12-01T01:37:39.080Z,32.28
2022-12-01T01:38:11.445Z,31.13
2022-12-01T01:38:43.386Z,30.73
2022-12-01T01:39:14.846Z,31.90
2022-12-01T01:39:46.797Z,31.60
2022-12-01T01:40:18.728Z,28.83
2022-12-01T01:40:50.203Z,30.23
2022-12-01T01:41:22.457Z,31.85
2022-12-01T01:41:53.915Z,29.92
2022-12-01T01:42:25.395Z,29.23
2022-12-01T01:42:56.834Z,33.67
2022-12-01T01:43:47.701Z,29.08
2022-12-01T01:44:54.173Z,29.45
2022-12-01T01:45:29.272Z,28.35
2022-12-01T01:46:00.868Z,28.70
2022-12-01T01:46:34.365Z,27.88
2022-12-01T01:47:06.106Z,32.13
2022-12-01T01:47:39.304Z,29.73
2022-12-01T01:48:13.516Z,33.15
2022-12-01T01:49:10.003Z,30.02
2022-12-01T01:49:42.214Z,31.55
2022-12-01T01:50:15.913Z,30.50
2022-12-01T01:50:47.370Z,31.77
2022-12-01T01:51:23.978Z,29.65
2022-12-01T01:51:57.634Z,29.17
2022-12-01T01:52:29.113Z,30.23
2022-12-01T01:53:10.597Z,31.23
2022-12-01T01:53:43.206Z,30.63
2022-12-01T01:54:22.552Z,30.67
2022-12-01T01:54:54.956Z,28.98
2022-12-01T01:55:27.380Z,31.23
2022-12-01T01:55:59.405Z,31.85
2022-12-01T01:56:30.945Z,29.33
2022-12-01T01:57:03.833Z,33.60
2022-12-01T01:57:35.827Z,32.05
2022-12-01T01:58:09.448Z,31.25
2022-12-01T01:58:41.178Z,27.65
2022-12-01T01:59:15.536Z,31.85
2022-12-01T01:59:50.644Z,30.70
2022-12-01T02:00:22.701Z,27.45
2022-12-01T02:00:54.177Z,29.80
2022-12-01T02:01:25.844Z,29.00
2022-12-01T02:02:06.577Z,31.08
2022-12-01T02:02:40.804Z,30.75
2022-12-01T02:03:16.035Z,30.33
2022-12-01T02:03:48.065Z,29.38
2022-12-01T02:04:20.431Z,29.48
2022-12-01T02:04:57.294Z,29.08
2022-12-01T02:05:31.235Z,31.30
2022-12-01T02:06:05.209Z,31.52
2022-12-01T02:06:36.810Z,29.95
2022-12-01T02:07:08.996Z,30.35
2022-12-01T02:07:41.343Z,30.02
2022-12-01T02:08:12.955Z,30.13
2022-12-01T02:08:44.429Z,30.33
2022-12-01T02:09:16.115Z,29.73
2022-12-01T02:09:48.022Z,29.50
2022-12-01T02:10:24.048Z,32.25
2022-12-01T02:11:20.369Z,31.50
2022-12-01T02:12:17.989Z,27.98
2022-12-01T02:12:58.821Z,29.48
2022-12-01T02:13:54.116Z,27.40
2022-12-01T02:14:47.385Z,28.88
2022-12-01T02:15:58.130Z,27.25
2022-12-01T02:16:45.291Z,27.02
2022-12-01T02:17:31.694Z,28.08
2022-12-01T02:18:35.334Z,29.48
2022-12-01T02:19:28.370Z,27.95
2022-12-01T02:20:24.507Z,27.85
2022-12-01T02:21:13.225Z,27.20
2022-12-01T02:22:09.207Z,28.55
2022-12-01T02:22:54.457Z,29.15
2022-12-01T02:23:56.628Z,29.90
2022-12-01T02:24:42.509Z,27.77
2022-12-01T02:25:27.061Z,29.02
2022-12-01T02:26:24.337Z,28.67
2022-12-01T02:27:25.024Z,29.13
2022-12-01T02:28:15.654Z,28.95
2022-12-01T02:29:01.221Z,30.00
2022-12-01T02:30:11.354Z,27.45
2022-12-01T02:30:58.787Z,28.85
2022-12-01T02:31:55.335Z,30.60
2022-12-01T02:32:33.387Z,30.65
2022-12-01T02:33:14.349Z,30.80
2022-12-01T02:34:40.030Z,28.33
2022-12-01T02:35:23.485Z,30.98
2022-12-01T02:36:01.371Z,30.33
2022-12-01T02:36:37.023Z,33.55
2022-12-01T02:37:15.860Z,32.95
2022-12-01T02:38:23.136Z,31.67
2022-12-01T02:38:59.454Z,29.73
2022-12-01T02:40:06.149Z,29.55
2022-12-01T02:40:47.470Z,30.13
2022-12-01T02:41:25.480Z,28.60
2022-12-01T02:42:31.755Z,30.27
2022-12-01T02:43:03.580Z,30.17
2022-12-01T02:43:51.734Z,28.70
2022-12-01T02:44:32.531Z,30.52
2022-12-01T02:45:06.296Z,31.90
2022-12-01T02:45:46.208Z,29.65
2022-12-01T02:46:28.011Z,32.65
2022-12-01T02:47:11.761Z,31.23
2022-12-01T02:47:44.824Z,31.58
2022-12-01T02:48:22.649Z,32.00
2022-12-01T02:48:55.215Z,27.02
2022-12-01T02:49:30.863Z,28.35
2022-12-01T02:50:03.875Z,27.70
2022-12-01T02:50:36.686Z,30.23
2022-12-01T02:51:12.841Z,31.13
2022-12-01T02:51:45.350Z,31.13
2022-12-01T02:52:17.749Z,31.77
2022-12-01T02:52:49.279Z,30.35
2022-12-01T02:53:20.939Z,32.55
2022-12-01T02:53:52.906Z,29.15
2022-12-01T02:54:25.656Z,31.27
2022-12-01T02:54:57.218Z,33.22
2022-12-01T02:55:28.718Z,33.47
2022-12-01T02:56:00.183Z,28.67
2022-12-01T02:56:32.021Z,29.63
2022-12-01T02:57:03.574Z,31.35
2022-12-01T02:57:35.049Z,31.25
2022-12-01T02:58:14.100Z,32.30
2022-12-01T02:58:45.797Z,31.40
2022-12-01T02:59:17.243Z,27.55
2022-12-01T02:59:52.168Z,34.53
2022-12-01T03:00:23.640Z,30.75
2022-12-01T03:01:34.265Z,32.33
2022-12-01T03:02:24.635Z,27.67
2022-12-01T03:03:11.574Z,30.27
2022-12-01T03:04:13.947Z,26.60
2022-12-01T03:05:05.021Z,28.95
2022-12-01T03:05:36.631Z,32.30
2022-12-01T03:06:15.982Z,30.00
2022-12-01T03:07:05.879Z,32.92
2022-12-01T03:08:14.619Z,30.63
2022-12-01T03:09:27.407Z,28.15
2022-12-01T03:10:18.336Z,29.35
2022-12-01T03:10:57.810Z,27.25
2022-12-01T03:11:49.008Z,30.63
2022-12-01T03:12:32.711Z,28.33
2022-12-01T03:13:31.340Z,29.58
2022-12-01T03:14:26.759Z,29.35
2022-12-01T03:15:03.548Z,30.60
2022-12-01T03:15:47.290Z,26.95
2022-12-01T03:16:18.811Z,32.05
2022-12-01T03:16:52.346Z,28.52
2022-12-01T03:17:53.858Z,34.80
2022-12-01T03:19:11.453Z,31.42
2022-12-01T03:19:48.621Z,29.83
2022-12-01T03:20:30.826Z,30.30
2022-12-01T03:21:10.472Z,31.73
2022-12-01T03:21:46.603Z,28.35
2022-12-01T03:22:28.563Z,29.25
2022-12-01T03:23:18.736Z,30.25
2022-12-01T03:23:56.740Z,33.88
2022-12-01T03:24:31.687Z,32.05
2022-12-01T03:25:04.007Z,29.83
2022-12-01T03:25:37.305Z,32.20
2022-12-01T03:26:11.175Z,32.05
2022-12-01T03:26:46.345Z,29.63
2022-12-01T03:27:22.489Z,28.80
2022-12-01T03:28:20.192Z,30.63
2022-12-01T03:29:06.538Z,30.80
2022-12-01T03:29:44.268Z,28.65
2022-12-01T03:30:16.585Z,31.23
2022-12-01T03:30:48.721Z,30.13
2022-12-01T03:31:26.065Z,30.52
2022-12-01T03:32:05.767Z,28.08
2022-12-01T03:32:42.397Z,30.58
2022-12-01T03:33:22.565Z,30.95
2022-12-01T03:34:07.591Z,30.60
2022-12-01T03:34:51.740Z,33.92
2022-12-01T03:35:27.166Z,29.65
2022-12-01T03:36:03.603Z,30.60
2022-12-01T03:36:43.002Z,31.05
2022-12-01T03:37:20.601Z,32.15
2022-12-01T03:37:57.559Z,33.10
2022-12-01T03:38:30.580Z,32.13
2022-12-01T03:39:06.806Z,34.03
2022-12-01T03:39:39.957Z,34.40
2022-12-01T03:40:17.724Z,33.03
2022-12-01T03:40:51.264Z,33.28
2022-12-01T03:41:26.421Z,32.60
2022-12-01T03:42:01.825Z,32.55
2022-12-01T03:42:37.567Z,34.17
2022-12-01T03:43:16.164Z,33.53
2022-12-01T03:43:52.803Z,31.88
2022-12-01T03:44:33.134Z,32.60
2022-12-01T03:45:08.512Z,33.80
2022-12-01T03:46:01.511Z,33.83
2022-12-01T03:46:41.343Z,30.77
2022-12-01T03:47:16.101Z,32.47
2022-12-01T03:47:47.920Z,35.90
2022-12-01T03:48:19.391Z,31.17
2022-12-01T03:48:52.909Z,31.23
2022-12-01T03:49:25.698Z,33.63
2022-12-01T03:50:00.236Z,31.83
2022-12-01T03:50:46.996Z,35.22
2022-12-01T03:51:21.080Z,32.22
2022-12-01T03:52:14.230Z,29.77
2022-12-01T03:53:08.873Z,28.88
2022-12-01T03:54:00.669Z,27.15
2022-12-01T03:54:55.674Z,28.75
2022-12-01T03:55:32.237Z,29.42
2022-12-01T03:56:05.887Z,28.55
2022-12-01T03:56:43.280Z,29.30
2022-12-01T03:57:18.937Z,31.80
2022-12-01T03:58:14.505Z,32.30
2022-12-01T03:58:47.456Z,32.22
2022-12-01T03:59:20.692Z,31.88
2022-12-01T03:59:52.605Z,31.42
2022-12-01T04:00:24.466Z,32.42
2022-12-01T04:00:57.617Z,30.50
2022-12-01T04:01:33.642Z,30.75
2022-12-01T04:02:08.477Z,31.95
2022-12-01T04:02:40.875Z,32.65
2022-12-01T04:03:18.110Z,32.88
2022-12-01T04:03:49.660Z,29.02
2022-12-01T04:04:21.291Z,32.80
2022-12-01T04:04:52.891Z,31.20
2022-12-01T04:05:25.601Z,31.33
2022-12-01T04:05:58.016Z,32.35
2022-12-01T04:06:29.746Z,31.05
2022-12-01T04:07:01.232Z,31.55
2022-12-01T04:07:32.928Z,30.17
2022-12-01T04:08:04.633Z,30.65
2022-12-01T04:08:37.516Z,28.73
2022-12-01T04:09:09.368Z,34.53
2022-12-01T04:09:41.780Z,30.35
2022-12-01T04:10:13.233Z,33.13
2022-12-01T04:10:44.944Z,35.28
2022-12-01T04:11:35.241Z,32.03
2022-12-01T04:12:25.882Z,28.95
2022-12-01T04:12:59.109Z,30.33
2022-12-01T04:13:30.584Z,28.63
2022-12-01T04:14:02.110Z,30.25
2022-12-01T04:14:33.615Z,27.38
2022-12-01T04:15:11.122Z,29.13
2022-12-01T04:15:43.277Z,28.45
2022-12-01T04:16:14.816Z,30.75
2022-12-01T04:16:46.346Z,30.52
2022-12-01T04:17:17.822Z,29.55
2022-12-01T04:17:49.278Z,29.95
2022-12-01T04:18:21.547Z,28.70
2022-12-01T04:18:53.029Z,30.30
2022-12-01T04:19:24.872Z,32.30
2022-12-01T04:19:56.650Z,31.67
2022-12-01T04:20:28.113Z,30.65
2022-12-01T04:20:59.602Z,32.22
2022-12-01T04:21:31.099Z,30.55
2022-12-01T04:22:03.433Z,28.98
2022-12-01T04:22:34.902Z,30.60
2022-12-01T04:23:06.353Z,31.98
2022-12-01T04:23:56.380Z,29.92
2022-12-01T04:24:28.036Z,30.25
2022-12-01T04:24:59.798Z,31.30
2022-12-01T04:25:31.224Z,31.48
2022-12-01T04:26:04.331Z,30.98
2022-12-01T04:26:37.296Z,31.23
2022-12-01T04:27:08.959Z,27.40
2022-12-01T04:27:40.496Z,30.65
2022-12-01T04:28:11.949Z,31.50
2022-12-01T04:28:43.380Z,28.40
2022-12-01T04:29:15.025Z,33.00
2022-12-01T04:29:46.793Z,28.40
2022-12-01T04:30:18.692Z,30.90
2022-12-01T04:30:50.193Z,30.13
2022-12-01T04:31:21.998Z,31.30
2022-12-01T04:31:53.623Z,34.00
2022-12-01T04:32:25.297Z,33.60
2022-12-01T04:32:57.605Z,31.20
2022-12-01T04:33:29.520Z,30.73
2022-12-01T04:34:01.364Z,29.92
2022-12-01T04:34:32.885Z,31.83
2022-12-01T04:35:04.675Z,30.23
2022-12-01T04:35:36.118Z,31.08
2022-12-01T04:36:08.145Z,29.63
2022-12-01T04:36:39.644Z,30.40
2022-12-01T04:37:12.151Z,29.58
2022-12-01T04:37:43.729Z,29.95
2022-12-01T04:38:15.162Z,29.85
2022-12-01T04:38:46.661Z,30.83
2022-12-01T04:39:18.273Z,28.98
2022-12-01T04:39:50.056Z,31.02
2022-12-01T04:40:21.703Z,30.00
2022-12-01T04:40:53.249Z,31.40
2022-12-01T04:41:24.720Z,29.70
2022-12-01T04:41:56.389Z,31.00
2022-12-01T04:42:27.879Z,27.63
2022-12-01T04:42:59.415Z,28.13
2022-12-01T04:43:30.854Z,28.63
2022-12-01T04:44:02.419Z,28.85
2022-12-01T04:44:35.284Z,30.17
2022-12-01T04:45:07.442Z,28.75
2022-12-01T04:45:38.936Z,27.95
2022-12-01T04:46:10.869Z,30.30
2022-12-01T04:46:42.555Z,30.08
2022-12-01T04:47:14.053Z,28.67
2022-12-01T04:47:45.477Z,30.17
2022-12-01T04:48:17.033Z,31.10
2022-12-01T04:48:48.540Z,29.40
2022-12-01T04:49:21.586Z,30.60
2022-12-01T04:49:53.285Z,29.58
2022-12-01T04:50:24.750Z,28.55
2022-12-01T04:50:56.311Z,28.30
2022-12-01T04:51:27.745Z,27.90
2022-12-01T04:51:59.325Z,27.63
2022-12-01T04:52:35.012Z,28.00
2022-12-01T04:53:07.022Z,30.38
2022-12-01T04:53:38.749Z,30.52
2022-12-01T04:54:10.224Z,30.35
2022-12-01T04:54:41.730Z,30.40
2022-12-01T04:55:15.363Z,29.88
2022-12-01T04:55:46.989Z,32.55
2022-12-01T04:56:18.532Z,29.42
2022-12-01T04:56:50.025Z,29.23
2022-12-01T04:57:21.469Z,29.45
2022-12-01T04:57:52.918Z,29.42
2022-12-01T04:58:24.573Z,29.75
2022-12-01T04:58:56.100Z,28.02
2022-12-01T04:59:27.890Z,29.92
2022-12-01T04:59:59.441Z,31.10
2022-12-01T05:00:31.007Z,30.63
2022-12-01T05:01:04.559Z,29.65
2022-12-01T05:01:36.125Z,26.98
2022-12-01T05:02:07.699Z,28.75
2022-12-01T05:02:43.227Z,30.63
2022-12-01T05:03:15.300Z,29.10
2022-12-01T05:03:51.010Z,28.85
2022-12-01T05:04:22.638Z,26.85
2022-12-01T05:04:54.081Z,29.27
2022-12-01T05:05:25.931Z,29.40
2022-12-01T05:06:07.800Z,28.63
2022-12-01T05:06:39.750Z,31.30
2022-12-01T05:07:11.191Z,30.63
2022-12-01T05:07:42.819Z,30.92
2022-12-01T05:08:14.329Z,32.72
2022-12-01T05:08:46.359Z,31.65
2022-12-01T05:09:18.094Z,32.10
2022-12-01T05:09:49.876Z,31.65
2022-12-01T05:10:22.034Z,30.17
2022-12-01T05:10:55.900Z,33.42
2022-12-01T05:11:29.008Z,32.28
2022-12-01T05:12:00.813Z,29.33
2022-12-01T05:12:32.484Z,29.88
2022-12-01T05:13:05.345Z,30.35
2022-12-01T05:13:39.506Z,32.05
2022-12-01T05:14:10.988Z,29.75
2022-12-01T05:14:42.468Z,31.63
2022-12-01T05:15:13.968Z,33.30
2022-12-01T05:15:45.436Z,31.75
2022-12-01T05:16:19.589Z,32.15
2022-12-01T05:16:51.198Z,31.00
2022-12-01T05:17:22.725Z,31.08
2022-12-01T05:17:54.202Z,32.17
2022-12-01T05:18:25.669Z,30.15
2022-12-01T05:19:17.818Z,30.77
2022-12-01T05:20:07.869Z,31.33
2022-12-01T05:20:57.477Z,27.65
2022-12-01T05:21:28.935Z,28.20
2022-12-01T05:22:00.379Z,28.52
2022-12-01T05:23:03.712Z,31.95
2022-12-01T05:23:55.721Z,30.35
2022-12-01T05:24:27.302Z,30.27
2022-12-01T05:24:59.019Z,27.10
2022-12-01T05:25:30.825Z,32.65
2022-12-01T05:26:04.541Z,30.48
2022-12-01T05:26:36.477Z,30.38
2022-12-01T05:27:07.932Z,32.85
2022-12-01T05:27:39.415Z,29.20
2022-12-01T05:28:10.942Z,30.98
2022-12-01T05:28:42.460Z,29.33
2022-12-01T05:29:14.287Z,30.63
2022-12-01T05:29:45.795Z,30.80
2022-12-01T05:30:17.404Z,31.55
2022-12-01T05:30:50.006Z,28.13
2022-12-01T05:31:21.512Z,31.17
2022-12-01T05:31:53.057Z,30.15
2022-12-01T05:32:24.656Z,30.25
2022-12-01T05:32:56.113Z,31.05
2022-12-01T05:33:28.483Z,30.42
2022-12-01T05:34:00.225Z,32.00
2022-12-01T05:34:31.677Z,32.65
2022-12-01T05:35:03.359Z,29.88
2022-12-01T05:35:34.870Z,31.25
2022-12-01T05:36:06.712Z,32.65
2022-12-01T05:36:38.186Z,31.55
2022-12-01T05:37:09.813Z,34.80
2022-12-01T05:37:41.302Z,30.27
2022-12-01T05:38:12.827Z,30.48
2022-12-01T05:38:44.279Z,34.95
2022-12-01T05:39:15.756Z,29.77
2022-12-01T05:39:47.452Z,30.33
2022-12-01T05:40:19.256Z,33.30
2022-12-01T05:40:55.209Z,32.05
2022-12-01T05:41:26.651Z,31.48
2022-12-01T05:41:58.176Z,31.58
2022-12-01T05:42:29.658Z,30.95
2022-12-01T05:43:01.194Z,31.95
2022-12-01T05:43:32.742Z,32.92
2022-12-01T05:44:04.436Z,34.25
2022-12-01T05:44:35.986Z,31.50
2022-12-01T05:45:07.849Z,31.35
2022-12-01T05:45:39.304Z,31.80
2022-12-01T05:46:11.184Z,32.13
2022-12-01T05:46:42.748Z,31.27
2022-12-01T05:47:14.230Z,34.78
2022-12-01T05:47:45.676Z,31.35
2022-12-01T05:48:17.930Z,34.28
2022-12-01T05:48:49.401Z,32.10
2022-12-01T05:49:20.928Z,34.20
2022-12-01T05:49:52.424Z,31.85
2022-12-01T05:50:24.924Z,33.35
2022-12-01T05:50:56.518Z,33.13
2022-12-01T05:51:28.093Z,33.35
2022-12-01T05:51:59.535Z,34.92
2022-12-01T05:52:34.148Z,37.80
2022-12-01T05:53:06.317Z,36.90
2022-12-01T05:53:37.914Z,38.17
2022-12-01T05:54:09.538Z,35.15
2022-12-01T05:54:41.106Z,38.13
2022-12-01T05:55:12.701Z,37.13
2022-12-01T05:55:44.562Z,38.55
2022-12-01T05:56:16.071Z,38.08
2022-12-01T05:56:47.534Z,38.97
2022-12-01T05:57:19.109Z,39.30
2022-12-01T05:57:50.545Z,39.47
2022-12-01T05:58:22.497Z,37.85
2022-12-01T05:58:54.101Z,36.83
2022-12-01T05:59:25.684Z,39.17
2022-12-01T05:59:57.298Z,38.78
2022-12-01T06:00:28.924Z,39.00
2022-12-01T06:01:00.499Z,39.60
2022-12-01T06:01:32.078Z,39.67
2022-12-01T06:02:03.706Z,38.65
2022-12-01T06:02:35.189Z,38.45
2022-12-01T06:03:06.695Z,38.58
2022-12-01T06:03:38.205Z,37.70
2022-12-01T06:04:09.756Z,39.53
2022-12-01T06:04:41.252Z,37.83
2022-12-01T06:05:12.738Z,39.38
2022-12-01T06:05:44.249Z,38.55
2022-12-01T06:06:15.785Z,38.55
2022-12-01T06:06:47.301Z,38.63
2022-12-01T06:07:19.626Z,36.58
2022-12-01T06:07:51.172Z,40.72
2022-12-01T06:08:22.643Z,38.40
2022-12-01T06:08:54.133Z,37.70
2022-12-01T06:09:25.572Z,38.40
2022-12-01T06:09:57.070Z,38.72
2022-12-01T06:10:28.546Z,38.53
2022-12-01T06:11:00.362Z,40.85
2022-12-01T06:11:31.915Z,38.72
2022-12-01T06:12:03.505Z,38.08
2022-12-01T06:12:35.131Z,38.45
2022-12-01T06:13:06.609Z,38.75
2022-12-01T06:13:38.286Z,36.92
2022-12-01T06:14:10.169Z,40.70
2022-12-01T06:14:41.657Z,38.78
2022-12-01T06:15:14.049Z,37.38
2022-12-01T06:15:45.501Z,39.28
2022-12-01T06:16:17.001Z,39.35
2022-12-01T06:16:48.512Z,41.25
2022-12-01T06:17:20.133Z,39.28
2022-12-01T06:17:51.634Z,41.53
2022-12-01T06:18:24.013Z,38.80
2022-12-01T06:18:55.465Z,39.15
2022-12-01T06:19:26.925Z,39.72
2022-12-01T06:19:58.464Z,40.08
2022-12-01T06:20:29.908Z,40.60
2022-12-01T06:21:01.879Z,38.03
2022-12-01T06:21:33.356Z,40.05
2022-12-01T06:22:04.898Z,40.03
2022-12-01T06:22:36.621Z,39.78
2022-12-01T06:23:08.075Z,37.38
2022-12-01T06:23:39.508Z,38.88
2022-12-01T06:24:11.485Z,40.13
2022-12-01T06:24:42.963Z,38.83
2022-12-01T06:25:14.426Z,42.33
2022-12-01T06:25:45.860Z,38.55
2022-12-01T06:26:17.328Z,39.97
2022-12-01T06:26:48.800Z,40.65
2022-12-01T06:27:20.348Z,37.08
2022-12-01T06:27:56.398Z,39.17
2022-12-01T06:28:27.901Z,39.95
2022-12-01T06:28:59.362Z,38.80
2022-12-01T06:29:30.971Z,38.15
2022-12-01T06:30:03.684Z,37.72
2022-12-01T06:30:35.135Z,35.70
2022-12-01T06:31:06.704Z,39.35
2022-12-01T06:31:38.176Z,38.63
2022-12-01T06:32:10.026Z,39.60
2022-12-01T06:32:41.552Z,37.50
2022-12-01T06:33:13.036Z,36.95
2022-12-01T06:33:44.525Z,37.75
2022-12-01T06:34:15.992Z,37.92
2022-12-01T06:34:47.465Z,38.22
2022-12-01T06:35:19.008Z,34.13
2022-12-01T06:36:00.306Z,38.03
2022-12-01T06:36:32.293Z,39.30
2022-12-01T06:37:03.848Z,39.15
2022-12-01T06:37:35.399Z,38.67
2022-12-01T06:38:06.862Z,39.25
2022-12-01T06:38:38.425Z,38.67
2022-12-01T06:39:10.146Z,39.10
2022-12-01T06:39:41.784Z,38.60
2022-12-01T06:40:13.487Z,41.60
2022-12-01T06:40:45.180Z,36.67
2022-12-01T06:41:16.609Z,40.65
2022-12-01T06:41:48.103Z,39.90
2022-12-01T06:42:19.601Z,38.45
2022-12-01T06:42:51.102Z,38.78
2022-12-01T06:43:22.848Z,37.63
2022-12-01T06:43:54.871Z,38.60
2022-12-01T06:44:26.308Z,38.95
2022-12-01T06:44:57.815Z,37.22
2022-12-01T06:45:30.883Z,37.13
2022-12-01T06:46:03.932Z,37.40
2022-12-01T06:46:35.537Z,40.58
2022-12-01T06:47:08.185Z,38.85
2022-12-01T06:47:39.710Z,37.75
2022-12-01T06:48:12.808Z,38.90
2022-12-01T06:48:44.248Z,40.65
2022-12-01T06:49:15.697Z,39.15
2022-12-01T06:49:47.693Z,40.17
2022-12-01T06:50:19.430Z,40.05
2022-12-01T06:50:51.129Z,40.28
2022-12-01T06:51:23.010Z,38.70
2022-12-01T06:51:54.517Z,39.65
2022-12-01T06:52:25.966Z,38.70
2022-12-01T06:52:59.292Z,38.80
2022-12-01T06:53:30.912Z,38.70
2022-12-01T06:54:05.593Z,38.65
2022-12-01T06:54:37.650Z,39.42
2022-12-01T06:55:09.398Z,41.88
2022-12-01T06:55:41.079Z,40.28
2022-12-01T06:56:12.793Z,41.00
2022-12-01T06:56:45.907Z,37.70
2022-12-01T06:57:17.878Z,39.30
2022-12-01T06:57:49.780Z,36.80
2022-12-01T06:58:21.514Z,39.03
2022-12-01T06:58:53.238Z,39.13
2022-12-01T06:59:25.981Z,39.72
2022-12-01T06:59:57.843Z,38.28
2022-12-01T07:00:29.597Z,39.92
2022-12-01T07:01:01.241Z,36.03
2022-12-01T07:01:32.798Z,41.08
2022-12-01T07:02:04.646Z,40.67
2022-12-01T07:02:36.555Z,40.25
2022-12-01T07:03:08.417Z,39.28
2022-12-01T07:03:39.909Z,37.78
2022-12-01T07:04:11.451Z,41.95
2022-12-01T07:04:43.000Z,37.80
2022-12-01T07:05:14.528Z,40.97
2022-12-01T07:05:58.657Z,38.95
2022-12-01T07:06:30.816Z,39.17
2022-12-01T07:07:04.602Z,38.17
2022-12-01T07:07:37.406Z,39.42
2022-12-01T07:08:08.985Z,39.15
2022-12-01T07:08:40.600Z,40.88
2022-12-01T07:09:12.417Z,37.85
2022-12-01T07:09:44.128Z,38.17
2022-12-01T07:10:15.738Z,38.13
2022-12-01T07:10:59.803Z,39.28
2022-12-01T07:11:32.283Z,39.38
2022-12-01T07:12:03.777Z,35.58
2022-12-01T07:12:35.302Z,37.80
2022-12-01T07:13:06.758Z,40.28
2022-12-01T07:13:38.673Z,40.40
2022-12-01T07:14:20.527Z,39.67
2022-12-01T07:14:51.965Z,37.75
2022-12-01T07:15:24.323Z,39.85
2022-12-01T07:15:55.828Z,42.78
2022-12-01T07:16:27.415Z,39.75
2022-12-01T07:16:59.273Z,37.83
2022-12-01T07:17:30.884Z,39.40
2022-12-01T07:18:02.726Z,40.60
2022-12-01T07:18:35.309Z,39.92
2022-12-01T07:19:06.731Z,40.03
2022-12-01T07:19:38.477Z,40.22
2022-12-01T07:20:10.511Z,39.47
2022-12-01T07:20:42.069Z,37.95
2022-12-01T07:21:14.763Z,39.80
2022-12-01T07:21:46.261Z,40.60
2022-12-01T07:22:17.827Z,42.13
2022-12-01T07:22:49.257Z,37.35
2022-12-01T07:23:21.458Z,41.25
2022-12-01T07:23:53.292Z,42.17
2022-12-01T07:24:24.764Z,39.97
2022-12-01T07:24:56.220Z,39.67
2022-12-01T07:25:28.423Z,41.75
2022-12-01T07:26:08.126Z,36.60
2022-12-01T07:26:41.106Z,41.78